createdAt,value
2023-08-07T00:00:02.106Z,99421.13
2023-08-07T00:00:47.410Z,99389.84
2023-08-07T00:01:29.140Z,99428.91
2023-08-07T00:02:10.914Z,99423.78
2023-08-07T00:02:52.659Z,99400.47
2023-08-07T00:03:34.428Z,99402.09
2023-08-07T00:04:16.084Z,99431.50
2023-08-07T00:04:58.882Z,99415.59
2023-08-07T00:05:40.533Z,99426.81
2023-08-07T00:06:22.232Z,99431.97
2023-08-07T00:07:04.103Z,99333.69
2023-08-07T00:07:46.217Z,99437.91
2023-08-07T00:08:28.312Z,99435.84
2023-08-07T00:09:10.118Z,99431.13
2023-08-07T00:09:51.800Z,99430.94
2023-08-07T00:10:33.588Z,99408.22
2023-08-07T00:11:15.318Z,99422.94
2023-08-07T00:11:57.256Z,99404.53
2023-08-07T00:12:39.322Z,99406.78
2023-08-07T00:13:20.999Z,99414.16
2023-08-07T00:14:02.740Z,99415.56
2023-08-07T00:14:44.379Z,99405.13
2023-08-07T00:15:26.029Z,99417.81
2023-08-07T00:16:07.737Z,99399.81
2023-08-07T00:16:49.434Z,99426.16
2023-08-07T00:17:31.315Z,99413.09
2023-08-07T00:18:13.008Z,99416.16
2023-08-07T00:18:57.192Z,99428.81
2023-08-07T00:19:39.433Z,99430.06
2023-08-07T00:20:21.294Z,99430.66
2023-08-07T00:21:03.178Z,99425.13
2023-08-07T00:21:44.966Z,99400.41
2023-08-07T00:22:26.854Z,99428.97
2023-08-07T00:23:08.675Z,99404.03
2023-08-07T00:23:50.870Z,99421.22
2023-08-07T00:24:32.585Z,99431.63
2023-08-07T00:25:14.355Z,99422.66
2023-08-07T00:25:56.061Z,99404.47
2023-08-07T00:26:37.691Z,99411.66
2023-08-07T00:27:19.598Z,99400.19
2023-08-07T00:28:01.259Z,99430.22
2023-08-07T00:28:43.006Z,99425.31
2023-08-07T00:29:24.666Z,99425.69
2023-08-07T00:30:06.873Z,99417.75
2023-08-07T00:30:48.573Z,99409.75
2023-08-07T00:31:32.477Z,99422.19
2023-08-07T00:32:14.439Z,99423.44
2023-08-07T00:32:56.578Z,99411.59
2023-08-07T00:33:38.437Z,99423.78
2023-08-07T00:34:20.140Z,99416.06
2023-08-07T00:35:01.809Z,99399.47
2023-08-07T00:35:43.624Z,99396.66
2023-08-07T00:36:25.316Z,99429.94
2023-08-07T00:37:07.054Z,99422.19
2023-08-07T00:37:50.073Z,99406.22
2023-08-07T00:38:31.844Z,99419.13
2023-08-07T00:39:13.546Z,99429.94
2023-08-07T00:39:55.545Z,99427.06
2023-08-07T00:40:39.609Z,99415.03
2023-08-07T00:41:21.393Z,99422.59
2023-08-07T00:42:03.439Z,99411.97
2023-08-07T00:42:45.156Z,99436.47
2023-08-07T00:43:26.804Z,99406.06
2023-08-07T00:44:08.454Z,99435.72
2023-08-07T00:44:50.249Z,99429.56
2023-08-07T00:45:38.731Z,99413.84
2023-08-07T00:46:20.462Z,99411.22
2023-08-07T00:47:02.323Z,99409.38
2023-08-07T00:47:44.426Z,99429.38
2023-08-07T00:48:26.226Z,99437.94
2023-08-07T00:49:09.549Z,99436.69
2023-08-07T00:49:51.425Z,99436.53
2023-08-07T00:50:45.953Z,99417.53
2023-08-07T00:51:29.862Z,99439.22
2023-08-07T00:52:11.719Z,99438.16
2023-08-07T00:52:53.722Z,99441.00
2023-08-07T00:53:39.223Z,99407.09
2023-08-07T00:54:21.702Z,99434.22
2023-08-07T00:55:04.501Z,99423.22
2023-08-07T00:55:47.009Z,99413.59
2023-08-07T00:56:29.328Z,99413.38
2023-08-07T00:57:12.945Z,99413.53
2023-08-07T00:57:54.743Z,99438.88
2023-08-07T00:58:37.578Z,99414.38
2023-08-07T00:59:19.956Z,99402.50
2023-08-07T01:00:03.321Z,99453.22
2023-08-07T01:00:45.948Z,99445.03
2023-08-07T01:01:28.432Z,99425.06
2023-08-07T01:02:11.143Z,99443.59
2023-08-07T01:03:17.819Z,99438.81
2023-08-07T01:03:59.888Z,99441.47
2023-08-07T01:04:42.235Z,99432.25
2023-08-07T01:05:26.876Z,99449.88
2023-08-07T01:06:08.933Z,99436.00
2023-08-07T01:06:51.419Z,99431.97
2023-08-07T01:07:33.113Z,99455.63
2023-08-07T01:08:14.913Z,99458.69
2023-08-07T01:08:58.709Z,99443.72
2023-08-07T01:09:40.630Z,99449.72
2023-08-07T01:10:32.586Z,99461.97
2023-08-07T01:11:32.571Z,99460.13
2023-08-07T01:12:21.018Z,99463.63
2023-08-07T01:13:14.064Z,99452.59
2023-08-07T01:13:56.949Z,99462.03
2023-08-07T01:14:56.533Z,99454.22
2023-08-07T01:15:39.107Z,99452.81
2023-08-07T01:16:33.298Z,99436.22
2023-08-07T01:17:22.941Z,99449.53
2023-08-07T01:18:08.545Z,99465.50
2023-08-07T01:18:50.983Z,99468.78
2023-08-07T01:19:33.071Z,99452.81
2023-08-07T01:20:15.349Z,99407.81
2023-08-07T01:20:57.022Z,99475.31
2023-08-07T01:21:38.829Z,99439.91
2023-08-07T01:22:21.055Z,99459.78
2023-08-07T01:23:02.798Z,99444.81
2023-08-07T01:23:44.532Z,99455.06
2023-08-07T01:24:26.182Z,99457.66
2023-08-07T01:25:08.232Z,99438.63
2023-08-07T01:25:49.895Z,99467.09
2023-08-07T01:26:33.832Z,99453.22
2023-08-07T01:27:29.536Z,99468.56
2023-08-07T01:28:25.770Z,99467.31
2023-08-07T01:29:24.019Z,99471.25
2023-08-07T01:30:18.888Z,99472.06
2023-08-07T01:31:08.299Z,99468.75
2023-08-07T01:31:52.611Z,99464.66
2023-08-07T01:32:43.757Z,99472.22
2023-08-07T01:33:35.838Z,99473.66
2023-08-07T01:34:20.645Z,99453.88
2023-08-07T01:35:04.105Z,99474.56
2023-08-07T01:35:50.589Z,99466.19
2023-08-07T01:36:33.353Z,99468.38
2023-08-07T01:37:15.717Z,99457.16
2023-08-07T01:37:59.680Z,99449.53
2023-08-07T01:38:42.962Z,99484.97
2023-08-07T01:39:25.768Z,99448.38
2023-08-07T01:40:10.108Z,99489.22
2023-08-07T01:40:53.952Z,99484.78
2023-08-07T01:41:36.898Z,99493.38
2023-08-07T01:42:18.932Z,99472.13
2023-08-07T01:43:01.509Z,99451.44
2023-08-07T01:43:43.593Z,99441.78
2023-08-07T01:44:25.830Z,99473.03
2023-08-07T01:45:07.699Z,99464.41
2023-08-07T01:45:49.558Z,99464.06
2023-08-07T01:46:31.299Z,99472.00
2023-08-07T01:47:13.093Z,99490.00
2023-08-07T01:47:55.470Z,99472.84
2023-08-07T01:48:38.013Z,99485.53
2023-08-07T01:49:19.909Z,99494.41
2023-08-07T01:50:01.675Z,99488.25
2023-08-07T01:50:44.031Z,99496.47
2023-08-07T01:51:25.845Z,99494.19
2023-08-07T01:52:08.804Z,99482.16
2023-08-07T01:52:51.016Z,99483.16
2023-08-07T01:53:32.732Z,99476.25
2023-08-07T01:54:14.436Z,99476.00
2023-08-07T01:54:56.155Z,99479.50
2023-08-07T01:55:37.837Z,99483.00
2023-08-07T01:56:19.648Z,99485.28
2023-08-07T01:57:01.316Z,99494.81
2023-08-07T01:57:43.766Z,99492.16
2023-08-07T01:58:25.646Z,99498.31
2023-08-07T01:59:07.414Z,99494.00
2023-08-07T01:59:49.319Z,99487.50
2023-08-07T02:00:31.250Z,99502.03
2023-08-07T02:01:12.953Z,99495.47
2023-08-07T02:01:54.702Z,99484.84
2023-08-07T02:02:37.201Z,99489.34
2023-08-07T02:03:19.089Z,99507.16
2023-08-07T02:04:00.856Z,99485.03
2023-08-07T02:04:42.529Z,99499.78
2023-08-07T02:05:24.353Z,99498.34
2023-08-07T02:06:06.052Z,99498.16
2023-08-07T02:06:47.723Z,99492.19
2023-08-07T02:07:29.974Z,99472.13
2023-08-07T02:08:11.875Z,99500.38
2023-08-07T02:08:53.613Z,99486.69
2023-08-07T02:09:35.285Z,99500.81
2023-08-07T02:10:17.002Z,99497.34
2023-08-07T02:10:58.810Z,99485.09
2023-08-07T02:11:40.747Z,99482.78
2023-08-07T02:12:22.528Z,99495.03
2023-08-07T02:13:04.325Z,99481.69
2023-08-07T02:13:46.072Z,99468.44
2023-08-07T02:14:27.833Z,99475.34
2023-08-07T02:15:09.926Z,99476.09
2023-08-07T02:15:51.610Z,99494.34
2023-08-07T02:16:33.348Z,99514.28
2023-08-07T02:17:15.268Z,99495.44
2023-08-07T02:17:57.116Z,99503.84
2023-08-07T02:18:40.298Z,99489.28
2023-08-07T02:19:21.975Z,99482.78
2023-08-07T02:20:04.017Z,99505.25
2023-08-07T02:20:47.138Z,99505.69
2023-08-07T02:21:28.905Z,99510.19
2023-08-07T02:22:10.983Z,99495.06
2023-08-07T02:22:52.632Z,99500.97
2023-08-07T02:23:35.767Z,99485.28
2023-08-07T02:24:17.487Z,99511.47
2023-08-07T02:24:59.289Z,99510.22
2023-08-07T02:25:41.072Z,99509.81
2023-08-07T02:26:22.794Z,99479.38
2023-08-07T02:27:04.691Z,99505.16
2023-08-07T02:27:46.457Z,99504.13
2023-08-07T02:28:28.550Z,99509.88
2023-08-07T02:29:10.190Z,99506.19
2023-08-07T02:29:55.412Z,99503.94
2023-08-07T02:30:39.132Z,99511.66
2023-08-07T02:31:20.794Z,99504.28
2023-08-07T02:32:04.016Z,99510.66
2023-08-07T02:32:45.969Z,99514.75
2023-08-07T02:33:27.797Z,99511.50
2023-08-07T02:34:09.558Z,99509.63
2023-08-07T02:34:51.284Z,99517.22
2023-08-07T02:35:32.984Z,99513.59
2023-08-07T02:36:14.627Z,99516.78
2023-08-07T02:36:56.497Z,99517.00
2023-08-07T02:37:38.313Z,99513.91
2023-08-07T02:38:20.037Z,99516.16
2023-08-07T02:39:02.364Z,99498.59
2023-08-07T02:39:44.131Z,99518.41
2023-08-07T02:40:25.843Z,99528.88
2023-08-07T02:41:08.027Z,99513.25
2023-08-07T02:41:50.312Z,99502.44
2023-08-07T02:42:32.037Z,99500.00
2023-08-07T02:43:13.683Z,99520.84
2023-08-07T02:43:55.432Z,99516.13
2023-08-07T02:44:37.127Z,99516.72
2023-08-07T02:45:18.820Z,99494.88
2023-08-07T02:46:00.603Z,99521.69
2023-08-07T02:46:42.566Z,99522.69
2023-08-07T02:47:27.192Z,99515.50
2023-08-07T02:48:09.030Z,99506.25
2023-08-07T02:48:50.720Z,99514.63
2023-08-07T02:49:32.400Z,99501.72
2023-08-07T02:50:14.348Z,99507.88
2023-08-07T02:50:56.181Z,99509.72
2023-08-07T02:51:37.963Z,99526.94
2023-08-07T02:52:19.669Z,99506.91
2023-08-07T02:53:02.102Z,99522.81
2023-08-07T02:53:43.903Z,99514.63
2023-08-07T02:54:25.579Z,99536.53
2023-08-07T02:55:08.084Z,99522.88
2023-08-07T02:55:49.849Z,99537.03
2023-08-07T02:56:31.754Z,99531.94
2023-08-07T02:57:13.417Z,99508.19
2023-08-07T02:57:55.064Z,99533.53
2023-08-07T02:58:36.793Z,99545.06
2023-08-07T02:59:18.433Z,99523.38
2023-08-07T03:00:00.194Z,99521.31
2023-08-07T03:00:41.930Z,99532.72
2023-08-07T03:01:23.682Z,99531.50
2023-08-07T03:02:05.876Z,99527.59
2023-08-07T03:02:47.650Z,99528.59
2023-08-07T03:03:29.320Z,99530.06
2023-08-07T03:04:11.017Z,99519.00
2023-08-07T03:04:52.822Z,99545.44
2023-08-07T03:05:34.556Z,99536.81
2023-08-07T03:06:16.496Z,99546.88
2023-08-07T03:06:58.361Z,99530.88
2023-08-07T03:07:40.382Z,99538.06
2023-08-07T03:08:22.162Z,99519.25
2023-08-07T03:09:04.821Z,99517.25
2023-08-07T03:09:48.393Z,99534.00
2023-08-07T03:10:30.179Z,99531.34
2023-08-07T03:11:11.956Z,99534.41
2023-08-07T03:11:53.651Z,99540.97
2023-08-07T03:12:35.339Z,99533.78
2023-08-07T03:13:17.221Z,99525.59
2023-08-07T03:13:58.900Z,99536.41
2023-08-07T03:14:40.795Z,99523.75
2023-08-07T03:15:22.483Z,99532.16
2023-08-07T03:16:06.314Z,99546.66
2023-08-07T03:16:48.073Z,99545.22
2023-08-07T03:17:29.757Z,99549.53
2023-08-07T03:18:11.499Z,99525.41
2023-08-07T03:18:53.222Z,99546.03
2023-08-07T03:19:35.137Z,99541.38
2023-08-07T03:20:16.978Z,99550.56
2023-08-07T03:20:59.168Z,99536.44
2023-08-07T03:21:40.938Z,99546.09
2023-08-07T03:22:22.779Z,99546.91
2023-08-07T03:23:04.671Z,99537.47
2023-08-07T03:23:46.422Z,99531.13
2023-08-07T03:24:28.211Z,99549.72
2023-08-07T03:25:10.257Z,99546.03
2023-08-07T03:26:16.323Z,99552.19
2023-08-07T03:27:00.384Z,99556.50
2023-08-07T03:27:42.105Z,99514.78
2023-08-07T03:28:23.926Z,99553.22
2023-08-07T03:29:05.832Z,99532.41
2023-08-07T03:29:47.473Z,99550.38
2023-08-07T03:30:30.143Z,99554.84
2023-08-07T03:31:11.965Z,99552.81
2023-08-07T03:31:53.739Z,99557.31
2023-08-07T03:32:35.696Z,99547.06
2023-08-07T03:33:17.397Z,99550.94
2023-08-07T03:33:59.604Z,99541.16
2023-08-07T03:34:42.442Z,99546.84
2023-08-07T03:35:24.661Z,99536.41
2023-08-07T03:36:06.347Z,99486.34
2023-08-07T03:36:48.994Z,99553.41
2023-08-07T03:37:30.666Z,99553.22
2023-08-07T03:38:12.394Z,99543.00
2023-08-07T03:38:54.682Z,99551.97
2023-08-07T03:39:36.484Z,99550.75
2023-08-07T03:40:18.231Z,99546.50
2023-08-07T03:40:59.912Z,99551.00
2023-08-07T03:41:41.762Z,99540.41
2023-08-07T03:42:26.284Z,99535.09
2023-08-07T03:43:08.002Z,99532.88
2023-08-07T03:43:49.861Z,99558.63
2023-08-07T03:44:31.786Z,99554.09
2023-08-07T03:45:14.553Z,99537.72
2023-08-07T03:46:00.271Z,99552.06
2023-08-07T03:46:43.243Z,99550.00
2023-08-07T03:47:24.977Z,99550.81
2023-08-07T03:48:07.474Z,99540.81
2023-08-07T03:48:50.333Z,99553.91
2023-08-07T03:49:33.637Z,99555.75
2023-08-07T03:50:15.419Z,99539.81
2023-08-07T03:51:04.651Z,99553.66
2023-08-07T03:51:47.603Z,99543.88
2023-08-07T03:52:29.324Z,99547.72
2023-08-07T03:53:11.548Z,99547.50
2023-08-07T03:53:58.201Z,99560.63
2023-08-07T03:54:39.943Z,99549.56
2023-08-07T03:55:21.644Z,99530.34
2023-08-07T03:56:03.964Z,99546.53
2023-08-07T03:56:48.008Z,99547.56
2023-08-07T03:57:29.744Z,99565.53
2023-08-07T03:58:11.750Z,99558.81
2023-08-07T03:58:54.485Z,99532.22
2023-08-07T03:59:38.643Z,99560.22
2023-08-07T04:00:21.843Z,99569.44
2023-08-07T04:01:05.056Z,99546.94
2023-08-07T04:01:47.087Z,99560.88
2023-08-07T04:02:31.256Z,99555.53
2023-08-07T04:03:13.149Z,99513.81
2023-08-07T04:03:55.173Z,99556.75
2023-08-07T04:04:36.941Z,99570.50
2023-08-07T04:05:18.728Z,99551.69
2023-08-07T04:06:02.881Z,99563.94
2023-08-07T04:06:45.158Z,99567.59
2023-08-07T04:07:26.909Z,99567.59
2023-08-07T04:08:08.575Z,99554.69
2023-08-07T04:08:50.395Z,99559.00
2023-08-07T04:09:33.077Z,99552.22
2023-08-07T04:10:14.802Z,99559.44
2023-08-07T04:11:06.245Z,99548.56
2023-08-07T04:11:49.648Z,99539.97
2023-08-07T04:12:31.354Z,99545.31
2023-08-07T04:13:13.076Z,99553.66
2023-08-07T04:13:54.815Z,99563.06
2023-08-07T04:14:36.630Z,99559.34
2023-08-07T04:15:18.417Z,99565.88
2023-08-07T04:16:01.774Z,99551.38
2023-08-07T04:16:43.677Z,99561.38
2023-08-07T04:17:25.356Z,99565.25
2023-08-07T04:18:07.176Z,99561.78
2023-08-07T04:18:49.116Z,99568.75
2023-08-07T04:19:30.845Z,99569.16
2023-08-07T04:20:13.129Z,99560.00
2023-08-07T04:20:55.849Z,99566.75
2023-08-07T04:21:37.692Z,99578.00
2023-08-07T04:22:19.370Z,99554.69
2023-08-07T04:23:01.074Z,99553.25
2023-08-07T04:23:43.689Z,99578.03
2023-08-07T04:24:25.522Z,99558.81
2023-08-07T04:25:07.677Z,99560.41
2023-08-07T04:25:49.967Z,99571.06
2023-08-07T04:26:31.850Z,99550.59
2023-08-07T04:27:13.523Z,99581.13
2023-08-07T04:27:55.213Z,99554.94
2023-08-07T04:28:36.934Z,99586.03
2023-08-07T04:29:18.650Z,99582.34
2023-08-07T04:30:00.284Z,99565.56
2023-08-07T04:30:42.912Z,99583.56
2023-08-07T04:31:24.645Z,99562.72
2023-08-07T04:32:07.102Z,99566.81
2023-08-07T04:32:49.040Z,99561.09
2023-08-07T04:33:30.816Z,99583.19
2023-08-07T04:34:13.656Z,99558.63
2023-08-07T04:34:55.697Z,99572.53
2023-08-07T04:35:37.445Z,99582.78
2023-08-07T04:36:19.151Z,99573.75
2023-08-07T04:37:01.758Z,99581.53
2023-08-07T04:37:43.537Z,99572.91
2023-08-07T04:38:25.379Z,99570.09
2023-08-07T04:39:08.430Z,99574.56
2023-08-07T04:39:50.277Z,99562.88
2023-08-07T04:40:32.126Z,99570.25
2023-08-07T04:41:13.894Z,99573.72
2023-08-07T04:41:55.636Z,99572.88
2023-08-07T04:42:37.430Z,99581.03
2023-08-07T04:43:22.871Z,99579.41
2023-08-07T04:44:05.131Z,99561.56
2023-08-07T04:44:46.965Z,99563.44
2023-08-07T04:45:28.724Z,99564.31
2023-08-07T04:46:10.797Z,99556.91
2023-08-07T04:46:53.484Z,99528.34
2023-08-07T04:47:35.353Z,99561.88
2023-08-07T04:48:19.004Z,99579.06
2023-08-07T04:49:02.244Z,99585.63
2023-08-07T04:49:44.008Z,99584.81
2023-08-07T04:50:25.738Z,99542.03
2023-08-07T04:51:07.624Z,99580.66
2023-08-07T04:51:49.305Z,99583.13
2023-08-07T04:52:31.007Z,99589.72
2023-08-07T04:53:12.728Z,99578.25
2023-08-07T04:53:54.535Z,99575.81
2023-08-07T04:54:36.205Z,99592.41
2023-08-07T04:55:17.960Z,99578.28
2023-08-07T04:56:03.484Z,99579.91
2023-08-07T04:56:45.676Z,99569.91
2023-08-07T04:57:27.466Z,99593.63
2023-08-07T04:58:09.445Z,99580.34
2023-08-07T04:58:51.212Z,99573.81
2023-08-07T04:59:32.961Z,99580.13
2023-08-07T05:00:15.086Z,99567.22
2023-08-07T05:00:58.163Z,99589.94
2023-08-07T05:01:40.036Z,99587.25
2023-08-07T05:02:21.838Z,99569.47
2023-08-07T05:03:03.854Z,99588.47
2023-08-07T05:03:45.768Z,99594.00
2023-08-07T05:04:27.572Z,99560.84
2023-08-07T05:05:10.771Z,99562.63
2023-08-07T05:05:59.157Z,99595.38
2023-08-07T05:06:40.890Z,99592.47
2023-08-07T05:07:22.577Z,99585.97
2023-08-07T05:08:04.739Z,99596.16
2023-08-07T05:08:46.711Z,99589.03
2023-08-07T05:09:28.395Z,99607.88
2023-08-07T05:10:10.655Z,99579.84
2023-08-07T05:10:52.332Z,99579.88
2023-08-07T05:11:34.711Z,99599.56
2023-08-07T05:12:16.454Z,99597.50
2023-08-07T05:12:58.396Z,99599.75
2023-08-07T05:13:40.144Z,99596.47
2023-08-07T05:14:21.860Z,99570.50
2023-08-07T05:15:03.694Z,99570.69
2023-08-07T05:15:50.607Z,99589.72
2023-08-07T05:16:32.431Z,99601.81
2023-08-07T05:17:14.882Z,99596.09
2023-08-07T05:17:56.728Z,99577.25
2023-08-07T05:18:38.512Z,99570.28
2023-08-07T05:19:20.233Z,99595.00
2023-08-07T05:20:01.916Z,99588.91
2023-08-07T05:20:43.672Z,99603.66
2023-08-07T05:21:25.404Z,99593.59
2023-08-07T05:22:07.073Z,99589.09
2023-08-07T05:22:49.243Z,99573.78
2023-08-07T05:23:31.069Z,99577.22
2023-08-07T05:24:13.462Z,99599.53
2023-08-07T05:24:55.298Z,99592.56
2023-08-07T05:25:37.308Z,99587.22
2023-08-07T05:26:19.104Z,99597.47
2023-08-07T05:27:00.820Z,99594.59
2023-08-07T05:27:43.615Z,99597.66
2023-08-07T05:28:25.405Z,99582.31
2023-08-07T05:29:08.105Z,99601.34
2023-08-07T05:29:49.857Z,99582.31
2023-08-07T05:30:31.935Z,99608.72
2023-08-07T05:31:14.173Z,99600.13
2023-08-07T05:31:56.119Z,99613.66
2023-08-07T05:32:41.034Z,99602.19
2023-08-07T05:33:22.805Z,99607.94
2023-08-07T05:34:04.535Z,99579.09
2023-08-07T05:34:46.534Z,99609.19
2023-08-07T05:35:28.246Z,99602.84
2023-08-07T05:36:09.915Z,99585.03
2023-08-07T05:36:51.783Z,99589.50
2023-08-07T05:37:34.160Z,99607.94
2023-08-07T05:38:15.944Z,99601.00
2023-08-07T05:38:57.931Z,99591.78
2023-08-07T05:39:39.669Z,99604.06
2023-08-07T05:40:21.421Z,99578.47
2023-08-07T05:41:03.355Z,99608.34
2023-08-07T05:41:45.061Z,99605.66
2023-08-07T05:42:26.722Z,99615.09
2023-08-07T05:43:08.556Z,99607.31
2023-08-07T05:43:50.386Z,99598.69
2023-08-07T05:44:32.216Z,99611.59
2023-08-07T05:45:13.947Z,99604.84
2023-08-07T05:45:55.797Z,99609.97
2023-08-07T05:46:37.466Z,99592.59
2023-08-07T05:47:19.173Z,99602.38
2023-08-07T05:48:01.168Z,99594.00
2023-08-07T05:48:42.843Z,99599.72
2023-08-07T05:49:26.255Z,99613.41
2023-08-07T05:50:08.962Z,99614.66
2023-08-07T05:50:52.497Z,99611.56
2023-08-07T05:51:34.180Z,99607.66
2023-08-07T05:52:15.847Z,99599.91
2023-08-07T05:52:57.577Z,99593.13
2023-08-07T05:53:39.261Z,99621.94
2023-08-07T05:54:20.927Z,99618.50
2023-08-07T05:55:03.538Z,99626.53
2023-08-07T05:55:46.592Z,99624.88
2023-08-07T05:56:28.265Z,99616.28
2023-08-07T05:57:10.276Z,99613.22
2023-08-07T05:57:52.086Z,99606.44
2023-08-07T05:58:33.847Z,99624.03
2023-08-07T05:59:16.533Z,99632.03
2023-08-07T05:59:58.245Z,99606.63
2023-08-07T06:00:40.200Z,99618.72
2023-08-07T06:01:22.023Z,99628.53
2023-08-07T06:02:04.741Z,99625.69
2023-08-07T06:02:46.836Z,99631.63
2023-08-07T06:03:29.181Z,99618.16
2023-08-07T06:04:11.163Z,99621.25
2023-08-07T06:04:53.794Z,99625.09
2023-08-07T06:05:38.303Z,99631.88
2023-08-07T06:06:20.225Z,99626.13
2023-08-07T06:07:02.026Z,99620.38
2023-08-07T06:07:44.212Z,99635.09
2023-08-07T06:08:26.205Z,99614.66
2023-08-07T06:09:08.149Z,99632.03
2023-08-07T06:09:49.874Z,99638.34
2023-08-07T06:10:31.752Z,99615.63
2023-08-07T06:11:13.485Z,99629.53
2023-08-07T06:11:55.530Z,99641.22
2023-08-07T06:12:37.550Z,99641.44
2023-08-07T06:13:30.514Z,99639.41
2023-08-07T06:14:17.804Z,99624.44
2023-08-07T06:14:59.603Z,99628.72
2023-08-07T06:15:41.318Z,99643.88
2023-08-07T06:16:23.201Z,99633.84
2023-08-07T06:17:05.483Z,99642.41
2023-08-07T06:17:47.259Z,99641.59
2023-08-07T06:18:29.090Z,99648.75
2023-08-07T06:19:25.345Z,99637.72
2023-08-07T06:20:12.951Z,99635.44
2023-08-07T06:20:54.785Z,99630.72
2023-08-07T06:21:37.129Z,99628.06
2023-08-07T06:22:18.810Z,99637.53
2023-08-07T06:23:00.566Z,99631.56
2023-08-07T06:23:43.249Z,99624.00
2023-08-07T06:24:26.327Z,99646.09
2023-08-07T06:25:09.460Z,99625.44
2023-08-07T06:25:54.880Z,99635.06
2023-08-07T06:26:39.445Z,99638.16
2023-08-07T06:27:22.383Z,99644.09
2023-08-07T06:28:04.414Z,99651.44
2023-08-07T06:28:46.087Z,99627.72
2023-08-07T06:29:27.829Z,99655.97
2023-08-07T06:30:10.054Z,99642.03
2023-08-07T06:30:51.689Z,99656.22
2023-08-07T06:31:33.426Z,99643.31
2023-08-07T06:32:15.237Z,99648.22
2023-08-07T06:32:56.953Z,99648.19
2023-08-07T06:33:38.848Z,99648.81
2023-08-07T06:34:20.481Z,99654.09
2023-08-07T06:35:03.033Z,99635.22
2023-08-07T06:35:44.732Z,99646.88
2023-08-07T06:36:26.856Z,99610.06
2023-08-07T06:37:08.544Z,99656.91
2023-08-07T06:37:50.429Z,99658.78
2023-08-07T06:38:32.374Z,99668.00
2023-08-07T06:39:14.151Z,99665.97
2023-08-07T06:39:55.895Z,99658.84
2023-08-07T06:40:38.987Z,99658.66
2023-08-07T06:41:20.854Z,99669.69
2023-08-07T06:42:03.060Z,99663.91
2023-08-07T06:42:49.628Z,99663.28
2023-08-07T06:43:31.380Z,99666.78
2023-08-07T06:44:13.097Z,99664.31
2023-08-07T06:44:54.863Z,99647.28
2023-08-07T06:45:36.588Z,99637.88
2023-08-07T06:46:18.307Z,99661.81
2023-08-07T06:47:00.162Z,99669.44
2023-08-07T06:47:42.031Z,99653.63
2023-08-07T06:48:24.200Z,99665.34
2023-08-07T06:49:06.040Z,99652.25
2023-08-07T06:49:47.873Z,99675.16
2023-08-07T06:50:29.568Z,99663.09
2023-08-07T06:51:11.594Z,99669.88
2023-08-07T06:51:53.275Z,99667.00
2023-08-07T06:52:35.012Z,99665.72
2023-08-07T06:53:17.208Z,99655.03
2023-08-07T06:53:59.014Z,99666.88
2023-08-07T06:54:40.672Z,99673.50
2023-08-07T06:55:22.641Z,99661.34
2023-08-07T06:56:04.663Z,99655.00
2023-08-07T06:56:46.766Z,99665.84
2023-08-07T06:57:29.517Z,99670.50
2023-08-07T06:58:11.509Z,99662.56
2023-08-07T06:58:53.351Z,99668.53
2023-08-07T06:59:35.144Z,99676.09
2023-08-07T07:00:17.435Z,99686.59
2023-08-07T07:00:59.199Z,99680.19
2023-08-07T07:01:41.035Z,99671.28
2023-08-07T07:02:24.024Z,99653.25
2023-08-07T07:03:06.175Z,99678.38
2023-08-07T07:03:53.311Z,99688.69
2023-08-07T07:04:35.191Z,99681.31
2023-08-07T07:05:18.985Z,99661.00
2023-08-07T07:06:02.527Z,99683.84
2023-08-07T07:06:44.280Z,99678.78
2023-08-07T07:07:26.027Z,99689.19
2023-08-07T07:08:07.742Z,99681.00
2023-08-07T07:08:49.567Z,99691.38
2023-08-07T07:09:31.444Z,99673.03
2023-08-07T07:10:13.312Z,99667.06
2023-08-07T07:10:54.981Z,99668.22
2023-08-07T07:11:36.663Z,99679.94
2023-08-07T07:12:18.422Z,99680.06
2023-08-07T07:13:00.642Z,99668.22
2023-08-07T07:13:42.713Z,99693.25
2023-08-07T07:14:24.611Z,99681.38
2023-08-07T07:15:06.845Z,99674.81
2023-08-07T07:15:54.373Z,99660.66
2023-08-07T07:16:37.116Z,99699.56
2023-08-07T07:17:18.915Z,99698.13
2023-08-07T07:18:00.876Z,99680.59
2023-08-07T07:18:42.712Z,99686.41
2023-08-07T07:19:24.514Z,99702.38
2023-08-07T07:20:07.273Z,99705.00
2023-08-07T07:20:49.235Z,99700.44
2023-08-07T07:21:31.013Z,99692.03
2023-08-07T07:22:12.864Z,99701.09
2023-08-07T07:22:54.577Z,99703.31
2023-08-07T07:23:36.288Z,99706.22
2023-08-07T07:24:17.948Z,99685.06
2023-08-07T07:25:00.156Z,99690.31
2023-08-07T07:25:41.884Z,99705.84
2023-08-07T07:26:23.549Z,99711.41
2023-08-07T07:27:07.829Z,99703.34
2023-08-07T07:27:49.604Z,99721.44
2023-08-07T07:28:31.888Z,99721.31
2023-08-07T07:29:13.604Z,99717.91
2023-08-07T07:29:55.628Z,99723.19
2023-08-07T07:30:40.249Z,99713.19
2023-08-07T07:31:22.296Z,99728.94
2023-08-07T07:32:04.382Z,99729.22
2023-08-07T07:32:47.526Z,99725.72
2023-08-07T07:33:29.391Z,99725.09
2023-08-07T07:34:11.257Z,99732.06
2023-08-07T07:34:53.147Z,99706.22
2023-08-07T07:35:38.940Z,99720.16
2023-08-07T07:36:21.283Z,99734.91
2023-08-07T07:37:03.054Z,99732.41
2023-08-07T07:37:44.857Z,99735.50
2023-08-07T07:38:27.533Z,99718.88
2023-08-07T07:39:11.042Z,99725.78
2023-08-07T07:39:52.855Z,99727.63
2023-08-07T07:40:38.011Z,99722.91
2023-08-07T07:41:19.889Z,99739.56
2023-08-07T07:42:01.897Z,99733.81
2023-08-07T07:42:44.529Z,99741.38
2023-08-07T07:43:26.375Z,99736.47
2023-08-07T07:44:08.156Z,99738.50
2023-08-07T07:44:50.007Z,99743.44
2023-08-07T07:45:37.657Z,99724.22
2023-08-07T07:46:19.402Z,99746.78
2023-08-07T07:47:01.169Z,99730.88
2023-08-07T07:47:42.930Z,99747.22
2023-08-07T07:48:24.914Z,99734.91
2023-08-07T07:49:07.649Z,99730.56
2023-08-07T07:49:49.509Z,99745.72
2023-08-07T07:50:31.311Z,99734.81
2023-08-07T07:51:13.103Z,99719.91
2023-08-07T07:51:54.893Z,99727.50
2023-08-07T07:52:36.679Z,99733.59
2023-08-07T07:53:18.417Z,99748.38
2023-08-07T07:54:13.642Z,99748.59
2023-08-07T07:54:57.076Z,99749.22
2023-08-07T07:55:39.227Z,99755.56
2023-08-07T07:56:21.119Z,99740.22
2023-08-07T07:57:02.917Z,99749.03
2023-08-07T07:57:44.619Z,99753.09
2023-08-07T07:58:26.363Z,99745.69
2023-08-07T07:59:09.447Z,99732.84
2023-08-07T07:59:51.357Z,99734.44
2023-08-07T08:00:33.212Z,99750.63
2023-08-07T08:01:15.208Z,99744.47
2023-08-07T08:01:57.104Z,99753.31
2023-08-07T08:02:41.068Z,99757.34
2023-08-07T08:03:25.513Z,99731.56
2023-08-07T08:04:07.677Z,99751.25
2023-08-07T08:04:49.630Z,99739.34
2023-08-07T08:05:31.449Z,99751.72
2023-08-07T08:06:14.614Z,99751.03
2023-08-07T08:06:56.479Z,99740.34
2023-08-07T08:07:40.243Z,99759.34
2023-08-07T08:08:22.324Z,99745.97
2023-08-07T08:09:05.591Z,99747.09
2023-08-07T08:09:48.237Z,99758.97
2023-08-07T08:10:30.059Z,99751.09
2023-08-07T08:11:11.849Z,99758.06
2023-08-07T08:11:53.609Z,99760.97
2023-08-07T08:12:38.157Z,99756.19
2023-08-07T08:13:20.440Z,99757.66
2023-08-07T08:14:02.567Z,99757.47
2023-08-07T08:14:55.916Z,99785.84
2023-08-07T08:15:38.343Z,99767.84
2023-08-07T08:16:20.283Z,99761.91
2023-08-07T08:17:02.295Z,99758.78
2023-08-07T08:17:44.844Z,99766.59
2023-08-07T08:18:26.814Z,99759.81
2023-08-07T08:19:10.810Z,99768.50
2023-08-07T08:19:52.677Z,99766.75
2023-08-07T08:20:34.428Z,99775.19